sensor_id;sensor_type;location;lat;lon;timestamp;temperature;humidity
4985;DHT22;2509;49.902;8.600;2023-09-18T00:00:56;21.60;99.90
4985;DHT22;2509;49.902;8.600;2023-09-18T00:03:58;21.50;99.90
4985;DHT22;2509;49.902;8.600;2023-09-18T00:06:59;21.50;99.90
4985;DHT22;2509;49.902;8.600;2023-09-18T00:10:01;21.50;99.90
4985;DHT22;2509;49.902;8.600;2023-09-18T00:13:03;21.40;99.90
4985;DHT22;2509;49.902;8.600;2023-09-18T00:16:06;21.40;99.90
4985;DHT22;2509;49.902;8.600;2023-09-18T00:19:08;21.30;99.90
4985;DHT22;2509;49.902;8.600;2023-09-18T00:22:11;21.30;99.90
4985;DHT22;2509;49.902;8.600;2023-09-18T00:25:13;21.30;99.90
4985;DHT22;2509;49.902;8.600;2023-09-18T00:28:15;21.30;99.90
4985;DHT22;2509;49.902;8.600;2023-09-18T00:31:18;21.30;99.90
4985;DHT22;2509;49.902;8.600;2023-09-18T00:34:20;21.30;99.90
4985;DHT22;2509;49.902;8.600;2023-09-18T00:37:22;21.30;99.90
4985;DHT22;2509;49.902;8.600;2023-09-18T00:40:24;21.30;99.90
4985;DHT22;2509;49.902;8.600;2023-09-18T00:43:25;21.30;99.90
4985;DHT22;2509;49.902;8.600;2023-09-18T00:46:28;21.20;99.90
4985;DHT22;2509;49.902;8.600;2023-09-18T00:49:31;21.20;99.90
4985;DHT22;2509;49.902;8.600;2023-09-18T00:52:33;21.20;99.90
4985;DHT22;2509;49.902;8.600;2023-09-18T00:55:36;21.20;99.90
4985;DHT22;2509;49.902;8.600;2023-09-18T00:58:40;21.20;99.90
4985;DHT22;2509;49.902;8.600;2023-09-18T01:01:44;21.20;99.90
4985;DHT22;2509;49.902;8.600;2023-09-18T01:04:47;21.20;99.90
4985;DHT22;2509;49.902;8.600;2023-09-18T01:07:50;21.20;99.90
4985;DHT22;2509;49.902;8.600;2023-09-18T01:10:56;21.10;99.90
4985;DHT22;2509;49.902;8.600;2023-09-18T01:14:12;21.10;99.90
4985;DHT22;2509;49.902;8.600;2023-09-18T01:17:17;21.10;99.90
4985;DHT22;2509;49.902;8.600;2023-09-18T01:20:19;21.10;99.90
4985;DHT22;2509;49.902;8.600;2023-09-18T01:23:22;21.10;99.90
4985;DHT22;2509;49.902;8.600;2023-09-18T01:26:24;21.00;99.90
4985;DHT22;2509;49.902;8.600;2023-09-18T01:29:26;21.00;99.90
4985;DHT22;2509;49.902;8.600;2023-09-18T01:32:31;21.00;99.90
4985;DHT22;2509;49.902;8.600;2023-09-18T01:35:34;21.00;99.90
4985;DHT22;2509;49.902;8.600;2023-09-18T01:38:38;21.10;99.90
4985;DHT22;2509;49.902;8.600;2023-09-18T01:41:40;21.10;99.90
4985;DHT22;2509;49.902;8.600;2023-09-18T01:44:44;21.10;99.90
4985;DHT22;2509;49.902;8.600;2023-09-18T01:47:46;21.10;99.90
4985;DHT22;2509;49.902;8.600;2023-09-18T01:50:48;21.10;99.90
4985;DHT22;2509;49.902;8.600;2023-09-18T01:53:52;21.10;99.90
4985;DHT22;2509;49.902;8.600;2023-09-18T01:56:54;21.00;99.90
4985;DHT22;2509;49.902;8.600;2023-09-18T01:59:56;21.00;99.90
4985;DHT22;2509;49.902;8.600;2023-09-18T02:02:57;21.00;99.90
4985;DHT22;2509;49.902;8.600;2023-09-18T02:05:59;20.80;99.90
4985;DHT22;2509;49.902;8.600;2023-09-18T02:09:03;20.50;99.90
4985;DHT22;2509;49.902;8.600;2023-09-18T02:12:05;20.10;99.90
4985;DHT22;2509;49.902;8.600;2023-09-18T02:15:07;19.90;99.90
4985;DHT22;2509;49.902;8.600;2023-09-18T02:18:11;19.80;99.90
4985;DHT22;2509;49.902;8.600;2023-09-18T02:21:19;19.70;99.90
4985;DHT22;2509;49.902;8.600;2023-09-18T02:24:22;19.50;99.90
4985;DHT22;2509;49.902;8.600;2023-09-18T02:27:24;19.30;99.90
4985;DHT22;2509;49.902;8.600;2023-09-18T02:30:26;19.30;99.90
4985;DHT22;2509;49.902;8.600;2023-09-18T02:33:28;19.20;99.90
4985;DHT22;2509;49.902;8.600;2023-09-18T02:36:30;19.30;99.90
4985;DHT22;2509;49.902;8.600;2023-09-18T02:39:33;19.30;99.90
4985;DHT22;2509;49.902;8.600;2023-09-18T02:42:35;19.30;99.90
4985;DHT22;2509;49.902;8.600;2023-09-18T02:45:37;19.30;99.90
4985;DHT22;2509;49.902;8.600;2023-09-18T02:48:38;19.30;99.90
4985;DHT22;2509;49.902;8.600;2023-09-18T02:51:40;19.30;99.90
4985;DHT22;2509;49.902;8.600;2023-09-18T02:54:43;19.30;99.90
4985;DHT22;2509;49.902;8.600;2023-09-18T02:57:45;19.10;99.90
4985;DHT22;2509;49.902;8.600;2023-09-18T03:00:49;19.20;99.90
4985;DHT22;2509;49.902;8.600;2023-09-18T03:03:52;19.20;99.90
4985;DHT22;2509;49.902;8.600;2023-09-18T03:06:54;19.10;99.90
4985;DHT22;2509;49.902;8.600;2023-09-18T03:09:57;19.20;99.90
4985;DHT22;2509;49.902;8.600;2023-09-18T03:12:58;19.20;99.90
4985;DHT22;2509;49.902;8.600;2023-09-18T03:16:00;19.20;99.90
4985;DHT22;2509;49.902;8.600;2023-09-18T03:19:02;19.30;99.90
4985;DHT22;2509;49.902;8.600;2023-09-18T03:22:04;19.30;99.90
4985;DHT22;2509;49.902;8.600;2023-09-18T03:25:07;19.40;99.90
4985;DHT22;2509;49.902;8.600;2023-09-18T03:28:22;19.40;99.90
4985;DHT22;2509;49.902;8.600;2023-09-18T03:31:24;19.50;99.90
4985;DHT22;2509;49.902;8.600;2023-09-18T03:34:26;19.60;99.90
4985;DHT22;2509;49.902;8.600;2023-09-18T03:37:28;19.60;99.90
4985;DHT22;2509;49.902;8.600;2023-09-18T03:40:31;19.70;99.90
4985;DHT22;2509;49.902;8.600;2023-09-18T03:43:33;19.70;99.90
4985;DHT22;2509;49.902;8.600;2023-09-18T03:46:35;19.80;99.90
4985;DHT22;2509;49.902;8.600;2023-09-18T03:49:37;19.80;99.90
4985;DHT22;2509;49.902;8.600;2023-09-18T03:52:39;19.80;99.90
4985;DHT22;2509;49.902;8.600;2023-09-18T03:55:42;19.80;99.90
4985;DHT22;2509;49.902;8.600;2023-09-18T03:58:44;19.80;99.90
4985;DHT22;2509;49.902;8.600;2023-09-18T04:01:49;19.70;99.90
4985;DHT22;2509;49.902;8.600;2023-09-18T04:04:51;19.70;99.90
4985;DHT22;2509;49.902;8.600;2023-09-18T04:07:54;19.80;99.90
4985;DHT22;2509;49.902;8.600;2023-09-18T04:10:57;19.70;99.90
4985;DHT22;2509;49.902;8.600;2023-09-18T04:13:59;19.60;99.90
4985;DHT22;2509;49.902;8.600;2023-09-18T04:17:01;19.60;99.90
4985;DHT22;2509;49.902;8.600;2023-09-18T04:20:04;19.60;99.90
4985;DHT22;2509;49.902;8.600;2023-09-18T04:23:27;19.50;99.90
4985;DHT22;2509;49.902;8.600;2023-09-18T04:26:30;19.60;99.90
4985;DHT22;2509;49.902;8.600;2023-09-18T04:29:33;19.60;99.90
4985;DHT22;2509;49.902;8.600;2023-09-18T04:32:36;19.50;99.90
4985;DHT22;2509;49.902;8.600;2023-09-18T04:35:38;19.50;99.90
4985;DHT22;2509;49.902;8.600;2023-09-18T04:38:40;19.60;99.90
4985;DHT22;2509;49.902;8.600;2023-09-18T04:41:43;19.60;99.90
4985;DHT22;2509;49.902;8.600;2023-09-18T04:44:45;19.50;99.90
4985;DHT22;2509;49.902;8.600;2023-09-18T04:47:47;19.40;99.90
4985;DHT22;2509;49.902;8.600;2023-09-18T04:50:49;19.40;99.90
4985;DHT22;2509;49.902;8.600;2023-09-18T04:53:51;19.40;99.90
4985;DHT22;2509;49.902;8.600;2023-09-18T04:56:54;19.40;99.90
4985;DHT22;2509;49.902;8.600;2023-09-18T04:59:55;19.50;99.90
4985;DHT22;2509;49.902;8.600;2023-09-18T05:02:57;19.40;99.90
4985;DHT22;2509;49.902;8.600;2023-09-18T05:06:01;19.40;99.90
4985;DHT22;2509;49.902;8.600;2023-09-18T05:09:04;19.40;99.90
4985;DHT22;2509;49.902;8.600;2023-09-18T05:12:09;19.40;99.90
4985;DHT22;2509;49.902;8.600;2023-09-18T05:15:14;19.40;99.90
4985;DHT22;2509;49.902;8.600;2023-09-18T05:18:16;19.30;99.90
4985;DHT22;2509;49.902;8.600;2023-09-18T05:21:18;19.30;99.90
4985;DHT22;2509;49.902;8.600;2023-09-18T05:24:25;19.30;99.90
4985;DHT22;2509;49.902;8.600;2023-09-18T05:27:29;19.30;99.90
4985;DHT22;2509;49.902;8.600;2023-09-18T05:30:32;19.20;99.90
4985;DHT22;2509;49.902;8.600;2023-09-18T05:33:34;19.20;99.90
4985;DHT22;2509;49.902;8.600;2023-09-18T05:36:36;19.20;99.90
4985;DHT22;2509;49.902;8.600;2023-09-18T05:39:38;19.20;99.90
4985;DHT22;2509;49.902;8.600;2023-09-18T05:42:43;19.20;99.90
4985;DHT22;2509;49.902;8.600;2023-09-18T05:45:44;19.20;99.90
4985;DHT22;2509;49.902;8.600;2023-09-18T05:48:46;19.20;99.90
4985;DHT22;2509;49.902;8.600;2023-09-18T05:51:48;19.20;99.90
4985;DHT22;2509;49.902;8.600;2023-09-18T05:54:50;19.20;99.90
4985;DHT22;2509;49.902;8.600;2023-09-18T05:57:53;19.20;99.90
4985;DHT22;2509;49.902;8.600;2023-09-18T06:00:55;19.20;99.90
4985;DHT22;2509;49.902;8.600;2023-09-18T06:03:56;19.20;99.90
4985;DHT22;2509;49.902;8.600;2023-09-18T06:06:58;19.20;99.90
4985;DHT22;2509;49.902;8.600;2023-09-18T06:10:00;19.20;99.90
4985;DHT22;2509;49.902;8.600;2023-09-18T06:13:03;19.20;99.90
4985;DHT22;2509;49.902;8.600;2023-09-18T06:16:06;19.20;99.90
4985;DHT22;2509;49.902;8.600;2023-09-18T06:19:08;19.20;99.90
4985;DHT22;2509;49.902;8.600;2023-09-18T06:22:10;19.20;99.90
4985;DHT22;2509;49.902;8.600;2023-09-18T06:25:12;19.20;99.90
4985;DHT22;2509;49.902;8.600;2023-09-18T06:28:16;19.20;99.90
4985;DHT22;2509;49.902;8.600;2023-09-18T06:31:19;19.30;99.90
4985;DHT22;2509;49.902;8.600;2023-09-18T06:34:21;19.30;99.90
4985;DHT22;2509;49.902;8.600;2023-09-18T06:37:23;19.30;99.90
4985;DHT22;2509;49.902;8.600;2023-09-18T06:40:25;19.30;99.90
4985;DHT22;2509;49.902;8.600;2023-09-18T06:43:28;19.30;99.90
4985;DHT22;2509;49.902;8.600;2023-09-18T06:46:30;19.40;99.90
4985;DHT22;2509;49.902;8.600;2023-09-18T06:49:32;19.40;99.90
4985;DHT22;2509;49.902;8.600;2023-09-18T06:52:34;19.40;99.90
4985;DHT22;2509;49.902;8.600;2023-09-18T06:55:36;19.50;99.90
4985;DHT22;2509;49.902;8.600;2023-09-18T06:58:39;19.50;99.90
4985;DHT22;2509;49.902;8.600;2023-09-18T07:01:41;19.50;99.90
4985;DHT22;2509;49.902;8.600;2023-09-18T07:04:43;19.60;99.90
4985;DHT22;2509;49.902;8.600;2023-09-18T07:07:46;19.60;99.90
4985;DHT22;2509;49.902;8.600;2023-09-18T07:10:49;19.60;99.90
4985;DHT22;2509;49.902;8.600;2023-09-18T07:13:52;19.60;99.90
4985;DHT22;2509;49.902;8.600;2023-09-18T07:16:54;19.70;99.90
4985;DHT22;2509;49.902;8.600;2023-09-18T07:19:56;19.70;99.90
4985;DHT22;2509;49.902;8.600;2023-09-18T07:22:58;19.70;99.90
4985;DHT22;2509;49.902;8.600;2023-09-18T07:25:59;19.70;99.90
4985;DHT22;2509;49.902;8.600;2023-09-18T07:29:02;19.70;99.90
4985;DHT22;2509;49.902;8.600;2023-09-18T07:32:05;19.70;99.90
4985;DHT22;2509;49.902;8.600;2023-09-18T07:35:08;19.80;99.90
4985;DHT22;2509;49.902;8.600;2023-09-18T07:38:09;19.80;99.90
4985;DHT22;2509;49.902;8.600;2023-09-18T07:41:11;19.90;99.90
4985;DHT22;2509;49.902;8.600;2023-09-18T07:44:20;19.90;99.90
4985;DHT22;2509;49.902;8.600;2023-09-18T07:47:22;20.00;99.90
4985;DHT22;2509;49.902;8.600;2023-09-18T07:50:24;20.00;99.90
4985;DHT22;2509;49.902;8.600;2023-09-18T07:53:25;20.00;99.90
4985;DHT22;2509;49.902;8.600;2023-09-18T07:56:27;20.10;99.90
4985;DHT22;2509;49.902;8.600;2023-09-18T07:59:33;20.10;99.90
4985;DHT22;2509;49.902;8.600;2023-09-18T08:02:34;20.20;99.90
4985;DHT22;2509;49.902;8.600;2023-09-18T08:05:38;20.30;99.90
4985;DHT22;2509;49.902;8.600;2023-09-18T08:08:41;20.30;99.90
4985;DHT22;2509;49.902;8.600;2023-09-18T08:11:42;20.30;99.90
4985;DHT22;2509;49.902;8.600;2023-09-18T08:14:46;20.40;99.90
4985;DHT22;2509;49.902;8.600;2023-09-18T08:17:49;20.40;99.90
4985;DHT22;2509;49.902;8.600;2023-09-18T08:20:51;20.50;99.90
4985;DHT22;2509;49.902;8.600;2023-09-18T08:23:53;20.40;99.90
4985;DHT22;2509;49.902;8.600;2023-09-18T08:26:55;20.50;99.90
4985;DHT22;2509;49.902;8.600;2023-09-18T08:29:58;20.60;99.90
4985;DHT22;2509;49.902;8.600;2023-09-18T08:33:00;20.60;99.90
4985;DHT22;2509;49.902;8.600;2023-09-18T08:36:01;20.60;99.90
4985;DHT22;2509;49.902;8.600;2023-09-18T08:39:04;20.70;99.90
4985;DHT22;2509;49.902;8.600;2023-09-18T08:42:09;20.70;99.90
4985;DHT22;2509;49.902;8.600;2023-09-18T08:45:17;20.80;99.90
4985;DHT22;2509;49.902;8.600;2023-09-18T08:48:21;20.90;99.90
4985;DHT22;2509;49.902;8.600;2023-09-18T08:51:23;20.90;99.90
4985;DHT22;2509;49.902;8.600;2023-09-18T08:54:25;20.90;99.90
4985;DHT22;2509;49.902;8.600;2023-09-18T08:57:29;20.90;99.90
4985;DHT22;2509;49.902;8.600;2023-09-18T09:00:32;20.90;99.90
4985;DHT22;2509;49.902;8.600;2023-09-18T09:03:37;20.90;99.90
4985;DHT22;2509;49.902;8.600;2023-09-18T09:06:39;20.90;99.90
4985;DHT22;2509;49.902;8.600;2023-09-18T09:09:41;20.90;99.90
4985;DHT22;2509;49.902;8.600;2023-09-18T09:12:52;21.00;99.90
4985;DHT22;2509;49.902;8.600;2023-09-18T09:15:57;20.90;99.90
4985;DHT22;2509;49.902;8.600;2023-09-18T09:19:00;21.00;99.90
4985;DHT22;2509;49.902;8.600;2023-09-18T09:22:02;21.10;99.90
4985;DHT22;2509;49.902;8.600;2023-09-18T09:25:04;21.10;99.90
4985;DHT22;2509;49.902;8.600;2023-09-18T09:28:07;21.00;99.90
4985;DHT22;2509;49.902;8.600;2023-09-18T09:31:10;21.00;99.90
4985;DHT22;2509;49.902;8.600;2023-09-18T09:34:24;21.00;99.90
4985;DHT22;2509;49.902;8.600;2023-09-18T09:37:29;21.10;99.90
4985;DHT22;2509;49.902;8.600;2023-09-18T09:40:31;21.00;99.90
4985;DHT22;2509;49.902;8.600;2023-09-18T09:43:33;21.10;99.90
4985;DHT22;2509;49.902;8.600;2023-09-18T09:46:37;21.00;99.90
4985;DHT22;2509;49.902;8.600;2023-09-18T09:49:45;21.00;99.90
4985;DHT22;2509;49.902;8.600;2023-09-18T09:52:48;21.10;99.90
4985;DHT22;2509;49.902;8.600;2023-09-18T09:55:54;21.10;99.90
4985;DHT22;2509;49.902;8.600;2023-09-18T09:59:03;21.20;99.90
4985;DHT22;2509;49.902;8.600;2023-09-18T10:02:09;21.00;99.90
4985;DHT22;2509;49.902;8.600;2023-09-18T10:05:12;21.20;99.90
4985;DHT22;2509;49.902;8.600;2023-09-18T10:08:16;21.20;99.90
4985;DHT22;2509;49.902;8.600;2023-09-18T10:11:19;21.30;99.90
4985;DHT22;2509;49.902;8.600;2023-09-18T10:14:29;21.30;99.90
4985;DHT22;2509;49.902;8.600;2023-09-18T10:17:33;21.30;99.90
4985;DHT22;2509;49.902;8.600;2023-09-18T10:20:40;21.30;99.90
4985;DHT22;2509;49.902;8.600;2023-09-18T10:23:53;21.30;99.90
4985;DHT22;2509;49.902;8.600;2023-09-18T10:27:01;21.30;99.90
4985;DHT22;2509;49.902;8.600;2023-09-18T10:30:07;21.30;99.90
4985;DHT22;2509;49.902;8.600;2023-09-18T10:33:13;21.40;99.90
4985;DHT22;2509;49.902;8.600;2023-09-18T10:36:16;21.40;99.90
4985;DHT22;2509;49.902;8.600;2023-09-18T10:39:20;21.60;99.90
4985;DHT22;2509;49.902;8.600;2023-09-18T10:42:24;21.70;99.90
4985;DHT22;2509;49.902;8.600;2023-09-18T10:45:26;21.90;99.90
4985;DHT22;2509;49.902;8.600;2023-09-18T10:48:30;21.90;99.90
4985;DHT22;2509;49.902;8.600;2023-09-18T10:51:32;21.90;99.90
4985;DHT22;2509;49.902;8.600;2023-09-18T10:54:35;21.90;99.90
4985;DHT22;2509;49.902;8.600;2023-09-18T10:57:50;21.90;99.90
4985;DHT22;2509;49.902;8.600;2023-09-18T11:00:54;21.90;99.90
4985;DHT22;2509;49.902;8.600;2023-09-18T11:04:01;22.00;99.90
4985;DHT22;2509;49.902;8.600;2023-09-18T11:07:04;22.00;99.90
4985;DHT22;2509;49.902;8.600;2023-09-18T11:10:25;22.10;99.90
4985;DHT22;2509;49.902;8.600;2023-09-18T11:13:31;22.20;99.90
4985;DHT22;2509;49.902;8.600;2023-09-18T11:16:36;22.30;99.90
4985;DHT22;2509;49.902;8.600;2023-09-18T11:19:42;22.50;99.90
4985;DHT22;2509;49.902;8.600;2023-09-18T11:22:47;22.60;99.90
4985;DHT22;2509;49.902;8.600;2023-09-18T11:25:50;22.80;99.90
4985;DHT22;2509;49.902;8.600;2023-09-18T11:28:54;22.90;99.90
4985;DHT22;2509;49.902;8.600;2023-09-18T11:31:56;23.00;99.90
4985;DHT22;2509;49.902;8.600;2023-09-18T11:35:07;22.90;99.90
4985;DHT22;2509;49.902;8.600;2023-09-18T11:38:11;23.10;99.90
4985;DHT22;2509;49.902;8.600;2023-09-18T11:41:21;23.40;99.90
4985;DHT22;2509;49.902;8.600;2023-09-18T11:44:33;23.30;99.90
4985;DHT22;2509;49.902;8.600;2023-09-18T11:47:42;23.20;99.90
4985;DHT22;2509;49.902;8.600;2023-09-18T11:50:46;23.10;99.90
4985;DHT22;2509;49.902;8.600;2023-09-18T11:53:53;23.00;99.90
4985;DHT22;2509;49.902;8.600;2023-09-18T11:56:55;23.20;99.90
4985;DHT22;2509;49.902;8.600;2023-09-18T11:59:58;23.40;99.90
4985;DHT22;2509;49.902;8.600;2023-09-18T12:03:16;23.20;99.90
4985;DHT22;2509;49.902;8.600;2023-09-18T12:06:26;23.80;99.90
4985;DHT22;2509;49.902;8.600;2023-09-18T12:09:29;24.60;99.90
4985;DHT22;2509;49.902;8.600;2023-09-18T12:12:31;25.50;99.90
4985;DHT22;2509;49.902;8.600;2023-09-18T12:15:33;26.00;99.90
4985;DHT22;2509;49.902;8.600;2023-09-18T12:18:35;25.90;99.90
4985;DHT22;2509;49.902;8.600;2023-09-18T12:21:46;25.60;99.90
4985;DHT22;2509;49.902;8.600;2023-09-18T12:24:49;25.30;99.90
4985;DHT22;2509;49.902;8.600;2023-09-18T12:27:51;25.00;99.90
4985;DHT22;2509;49.902;8.600;2023-09-18T12:30:54;24.80;99.90
4985;DHT22;2509;49.902;8.600;2023-09-18T12:33:56;24.80;99.90
4985;DHT22;2509;49.902;8.600;2023-09-18T12:37:00;25.00;99.90
4985;DHT22;2509;49.902;8.600;2023-09-18T12:40:03;25.60;99.90
4985;DHT22;2509;49.902;8.600;2023-09-18T12:43:11;26.00;99.90
4985;DHT22;2509;49.902;8.600;2023-09-18T12:46:15;26.60;99.90
4985;DHT22;2509;49.902;8.600;2023-09-18T12:49:18;26.80;99.90
4985;DHT22;2509;49.902;8.600;2023-09-18T12:52:23;27.10;99.90
4985;DHT22;2509;49.902;8.600;2023-09-18T12:55:26;27.30;99.90
4985;DHT22;2509;49.902;8.600;2023-09-18T12:58:28;27.30;99.90
4985;DHT22;2509;49.902;8.600;2023-09-18T13:01:30;27.70;99.90
4985;DHT22;2509;49.902;8.600;2023-09-18T13:04:32;27.40;99.90
4985;DHT22;2509;49.902;8.600;2023-09-18T13:07:44;26.80;99.90
4985;DHT22;2509;49.902;8.600;2023-09-18T13:10:47;26.50;99.90
4985;DHT22;2509;49.902;8.600;2023-09-18T13:13:57;26.50;99.90
4985;DHT22;2509;49.902;8.600;2023-09-18T13:17:01;26.70;99.90
4985;DHT22;2509;49.902;8.600;2023-09-18T13:20:15;26.90;99.90
4985;DHT22;2509;49.902;8.600;2023-09-18T13:23:32;27.50;99.90
4985;DHT22;2509;49.902;8.600;2023-09-18T13:26:36;28.00;99.90
4985;DHT22;2509;49.902;8.600;2023-09-18T13:29:38;28.40;99.90
4985;DHT22;2509;49.902;8.600;2023-09-18T13:32:40;28.10;99.90
4985;DHT22;2509;49.902;8.600;2023-09-18T13:35:43;27.70;99.90
4985;DHT22;2509;49.902;8.600;2023-09-18T13:38:47;27.40;99.90
4985;DHT22;2509;49.902;8.600;2023-09-18T13:41:49;27.30;99.90
4985;DHT22;2509;49.902;8.600;2023-09-18T13:44:50;26.70;99.90
4985;DHT22;2509;49.902;8.600;2023-09-18T13:47:54;26.30;99.90
4985;DHT22;2509;49.902;8.600;2023-09-18T13:50:56;26.10;99.90
4985;DHT22;2509;49.902;8.600;2023-09-18T13:53:59;25.90;99.90
4985;DHT22;2509;49.902;8.600;2023-09-18T13:57:01;25.60;99.90
4985;DHT22;2509;49.902;8.600;2023-09-18T14:00:06;25.50;99.90
4985;DHT22;2509;49.902;8.600;2023-09-18T14:03:12;25.60;99.90
4985;DHT22;2509;49.902;8.600;2023-09-18T14:06:15;25.70;99.90
4985;DHT22;2509;49.902;8.600;2023-09-18T14:09:18;26.50;99.90
4985;DHT22;2509;49.902;8.600;2023-09-18T14:12:21;27.00;99.90
4985;DHT22;2509;49.902;8.600;2023-09-18T14:15:22;26.80;99.90
4985;DHT22;2509;49.902;8.600;2023-09-18T14:18:24;26.90;99.90
4985;DHT22;2509;49.902;8.600;2023-09-18T14:22:05;27.50;99.90
4985;DHT22;2509;49.902;8.600;2023-09-18T14:25:38;28.00;99.90
4985;DHT22;2509;49.902;8.600;2023-09-18T14:28:42;28.50;99.90
4985;DHT22;2509;49.902;8.600;2023-09-18T14:31:46;29.10;99.90
4985;DHT22;2509;49.902;8.600;2023-09-18T14:34:48;29.60;99.90
4985;DHT22;2509;49.902;8.600;2023-09-18T14:37:49;30.00;99.90
4985;DHT22;2509;49.902;8.600;2023-09-18T14:40:52;30.40;99.90
4985;DHT22;2509;49.902;8.600;2023-09-18T14:44:00;30.60;99.90
4985;DHT22;2509;49.902;8.600;2023-09-18T14:47:04;30.90;99.90
4985;DHT22;2509;49.902;8.600;2023-09-18T14:50:07;31.20;99.90
4985;DHT22;2509;49.902;8.600;2023-09-18T14:53:08;31.00;99.90
4985;DHT22;2509;49.902;8.600;2023-09-18T14:56:12;30.50;99.90
4985;DHT22;2509;49.902;8.600;2023-09-18T14:59:13;29.20;99.90
4985;DHT22;2509;49.902;8.600;2023-09-18T15:02:15;28.70;99.90
4985;DHT22;2509;49.902;8.600;2023-09-18T15:05:18;28.60;99.90
4985;DHT22;2509;49.902;8.600;2023-09-18T15:08:20;28.30;99.90
4985;DHT22;2509;49.902;8.600;2023-09-18T15:11:23;28.10;99.90
4985;DHT22;2509;49.902;8.600;2023-09-18T15:14:24;28.30;99.90
4985;DHT22;2509;49.902;8.600;2023-09-18T15:17:26;28.30;99.90
4985;DHT22;2509;49.902;8.600;2023-09-18T15:20:28;28.10;99.90
4985;DHT22;2509;49.902;8.600;2023-09-18T15:23:30;28.10;99.90
4985;DHT22;2509;49.902;8.600;2023-09-18T15:26:33;27.50;99.90
4985;DHT22;2509;49.902;8.600;2023-09-18T15:29:35;26.90;99.90
4985;DHT22;2509;49.902;8.600;2023-09-18T15:32:46;26.50;99.90
4985;DHT22;2509;49.902;8.600;2023-09-18T15:35:49;26.40;99.90
4985;DHT22;2509;49.902;8.600;2023-09-18T15:38:50;26.10;99.90
4985;DHT22;2509;49.902;8.600;2023-09-18T15:41:53;26.00;99.90
4985;DHT22;2509;49.902;8.600;2023-09-18T15:44:55;25.80;99.90
4985;DHT22;2509;49.902;8.600;2023-09-18T15:47:57;25.80;99.90
4985;DHT22;2509;49.902;8.600;2023-09-18T15:50:59;26.20;99.90
4985;DHT22;2509;49.902;8.600;2023-09-18T15:54:01;26.50;99.90
4985;DHT22;2509;49.902;8.600;2023-09-18T15:57:05;26.20;99.90
4985;DHT22;2509;49.902;8.600;2023-09-18T16:00:08;25.80;99.90
4985;DHT22;2509;49.902;8.600;2023-09-18T16:03:10;25.90;99.90
4985;DHT22;2509;49.902;8.600;2023-09-18T16:06:12;25.90;99.90
4985;DHT22;2509;49.902;8.600;2023-09-18T16:09:14;25.80;99.90
4985;DHT22;2509;49.902;8.600;2023-09-18T16:12:17;25.60;99.90
4985;DHT22;2509;49.902;8.600;2023-09-18T16:15:19;25.10;99.90
4985;DHT22;2509;49.902;8.600;2023-09-18T16:18:21;24.90;99.90
4985;DHT22;2509;49.902;8.600;2023-09-18T16:21:23;25.00;99.90
4985;DHT22;2509;49.902;8.600;2023-09-18T16:24:24;24.90;99.90
4985;DHT22;2509;49.902;8.600;2023-09-18T16:27:28;24.80;99.90
4985;DHT22;2509;49.902;8.600;2023-09-18T16:30:29;24.70;99.90
4985;DHT22;2509;49.902;8.600;2023-09-18T16:33:31;24.70;99.90
4985;DHT22;2509;49.902;8.600;2023-09-18T16:36:33;24.60;99.90
4985;DHT22;2509;49.902;8.600;2023-09-18T16:39:34;24.60;99.90
4985;DHT22;2509;49.902;8.600;2023-09-18T16:42:38;24.60;99.90
4985;DHT22;2509;49.902;8.600;2023-09-18T16:45:39;24.60;99.90
4985;DHT22;2509;49.902;8.600;2023-09-18T16:48:42;24.40;99.90
4985;DHT22;2509;49.902;8.600;2023-09-18T16:51:44;24.30;99.90
4985;DHT22;2509;49.902;8.600;2023-09-18T16:54:46;24.20;99.90
4985;DHT22;2509;49.902;8.600;2023-09-18T16:57:49;24.20;99.90
4985;DHT22;2509;49.902;8.600;2023-09-18T17:00:52;24.10;99.90
4985;DHT22;2509;49.902;8.600;2023-09-18T17:03:54;24.00;99.90
4985;DHT22;2509;49.902;8.600;2023-09-18T17:06:56;23.90;99.90
4985;DHT22;2509;49.902;8.600;2023-09-18T17:09:59;23.80;99.90
4985;DHT22;2509;49.902;8.600;2023-09-18T17:13:02;23.70;99.90
4985;DHT22;2509;49.902;8.600;2023-09-18T17:16:05;23.70;99.90
4985;DHT22;2509;49.902;8.600;2023-09-18T17:19:09;23.60;99.90
4985;DHT22;2509;49.902;8.600;2023-09-18T17:22:13;23.50;99.90
4985;DHT22;2509;49.902;8.600;2023-09-18T17:25:16;23.50;99.90
4985;DHT22;2509;49.902;8.600;2023-09-18T17:28:19;23.40;99.90
4985;DHT22;2509;49.902;8.600;2023-09-18T17:31:21;23.40;99.90
4985;DHT22;2509;49.902;8.600;2023-09-18T17:34:22;23.30;99.90
4985;DHT22;2509;49.902;8.600;2023-09-18T17:37:24;23.30;99.90
4985;DHT22;2509;49.902;8.600;2023-09-18T17:40:27;23.20;99.90
4985;DHT22;2509;49.902;8.600;2023-09-18T17:43:30;23.20;99.90
4985;DHT22;2509;49.902;8.600;2023-09-18T17:46:32;23.10;99.90
4985;DHT22;2509;49.902;8.600;2023-09-18T17:49:34;23.00;99.90
4985;DHT22;2509;49.902;8.600;2023-09-18T17:52:36;23.00;99.90
4985;DHT22;2509;49.902;8.600;2023-09-18T17:55:38;22.90;99.90
4985;DHT22;2509;49.902;8.600;2023-09-18T17:58:41;22.90;99.90
4985;DHT22;2509;49.902;8.600;2023-09-18T18:01:42;22.80;99.90
4985;DHT22;2509;49.902;8.600;2023-09-18T18:04:46;22.80;99.90
4985;DHT22;2509;49.902;8.600;2023-09-18T18:07:48;22.70;99.90
4985;DHT22;2509;49.902;8.600;2023-09-18T18:10:50;22.70;99.90
4985;DHT22;2509;49.902;8.600;2023-09-18T18:13:53;22.50;99.90
4985;DHT22;2509;49.902;8.600;2023-09-18T18:16:55;22.50;99.90
4985;DHT22;2509;49.902;8.600;2023-09-18T18:19:58;22.40;99.90
4985;DHT22;2509;49.902;8.600;2023-09-18T18:23:02;22.30;99.90
4985;DHT22;2509;49.902;8.600;2023-09-18T18:26:09;22.30;99.90
4985;DHT22;2509;49.902;8.600;2023-09-18T18:29:12;22.30;99.90
4985;DHT22;2509;49.902;8.600;2023-09-18T18:32:15;22.20;99.90
4985;DHT22;2509;49.902;8.600;2023-09-18T18:35:17;22.10;99.90
4985;DHT22;2509;49.902;8.600;2023-09-18T18:38:21;22.00;99.90
4985;DHT22;2509;49.902;8.600;2023-09-18T18:41:23;21.90;99.90
4985;DHT22;2509;49.902;8.600;2023-09-18T18:44:27;21.80;99.90
4985;DHT22;2509;49.902;8.600;2023-09-18T18:47:29;21.70;99.90
4985;DHT22;2509;49.902;8.600;2023-09-18T18:50:31;21.70;99.90
4985;DHT22;2509;49.902;8.600;2023-09-18T18:53:35;21.60;99.90
4985;DHT22;2509;49.902;8.600;2023-09-18T18:56:37;21.50;99.90
4985;DHT22;2509;49.902;8.600;2023-09-18T18:59:40;21.40;99.90
4985;DHT22;2509;49.902;8.600;2023-09-18T19:02:42;21.30;99.90
4985;DHT22;2509;49.902;8.600;2023-09-18T19:05:44;21.30;99.90
4985;DHT22;2509;49.902;8.600;2023-09-18T19:08:46;21.20;99.90
4985;DHT22;2509;49.902;8.600;2023-09-18T19:11:48;21.10;99.90
4985;DHT22;2509;49.902;8.600;2023-09-18T19:14:51;21.00;99.90
4985;DHT22;2509;49.902;8.600;2023-09-18T19:17:53;20.90;99.90
4985;DHT22;2509;49.902;8.600;2023-09-18T19:20:55;20.90;99.90
4985;DHT22;2509;49.902;8.600;2023-09-18T19:23:57;20.80;99.90
4985;DHT22;2509;49.902;8.600;2023-09-18T19:26:59;20.70;99.90
4985;DHT22;2509;49.902;8.600;2023-09-18T19:30:03;20.60;99.90
4985;DHT22;2509;49.902;8.600;2023-09-18T19:33:07;20.60;99.90
4985;DHT22;2509;49.902;8.600;2023-09-18T19:36:10;20.50;99.90
4985;DHT22;2509;49.902;8.600;2023-09-18T19:39:12;20.50;99.90
4985;DHT22;2509;49.902;8.600;2023-09-18T19:42:14;20.40;99.90
4985;DHT22;2509;49.902;8.600;2023-09-18T19:45:17;20.30;99.90
4985;DHT22;2509;49.902;8.600;2023-09-18T19:48:19;20.10;99.90
4985;DHT22;2509;49.902;8.600;2023-09-18T19:51:20;20.00;99.90
4985;DHT22;2509;49.902;8.600;2023-09-18T19:54:22;20.00;99.90
4985;DHT22;2509;49.902;8.600;2023-09-18T19:57:24;19.90;99.90